Wind From: 11-12-2017 07:30 Until: 12-12-2017 06:00 warning for: Wind Level: Orange info button

Power and phone distribution networks may be disrupted for relatively long periods., Roofs and chimneys can be damaged. , Tree branches may break. , Vehicles can be deported. , Traffic may be disrupted, particularly on secondary roads in forest areas. Limit your trips. , Limit your speed in highway driving, especially if you drive a vehicle or hitch sensitive to wind. , Do not go for walks in forests or along the coast., In town, be vigilant against possible falling objects., Do not work on roofs and do not touch any electrical line fallen on the ground., Store or secure sensitive objects to wind or likely to be damaged., Always install power generators outside buildings. 


Meteo18 Weather Cam more information Meteo18 Weather Cam


Thunder radar more information blitzortung!


Rain radar more information rain snow radar


Visit our other weather sites:

Template documentation
and downloads

And another site



Weather Underground History page Text

Daily Summary for August 1, 2017 Units:  Metric    English   Both
« Previous Day
Next Day »
Daily Weekly Monthly Yearly Custom
  High: Low: Average:
Temperature: 25.7 °C 15.9 °C 19.9 °C
Dew Point: 19.1 °C 14.8 °C 16.9 °C
Humidity: 97 % 62 % 84 %
Wind Speed: 22.5 km/h 0.0 km/h 4 km/h
Wind Gust: 49.9 km/h - -
Wind:- - SSW
Pressure: 1019.5 hPa 1011.4 hPa -
Precipitation: 23.4 mm    
Historical Graphs
 
 
Tabular Data for August 1, 2017
Time Temperature Dew Point Pressure Wind Wind Speed Wind Gust Humidity Rainfall Rate (Hourly)
00:02 16.3 °C 14.8 °C 1014.1 hPa NNW 4.8 km/h 22.5 km/h 91 % 8.6 mm
00:12 16.7 °C 15.1 °C 1013.1 hPa North 4.8 km/h 19.3 km/h 90 % 6.6 mm
00:17 16.7 °C 15.2 °C 1014.4 hPa NW 1.6 km/h 19.3 km/h 91 % 4.6 mm
00:22 16.6 °C 15.0 °C 1014.4 hPa North 3.2 km/h 19.3 km/h 90 % 4.6 mm
00:32 16.7 °C 15.2 °C 1014.8 hPa ENE 4.8 km/h 14.5 km/h 91 % 4.8 mm
00:37 16.8 °C 15.3 °C 1015.1 hPa Calm   9.7 km/h 91 % 4.6 mm
00:47 16.8 °C 15.3 °C 1014.4 hPa North 11.3 km/h 12.9 km/h 91 % 2.5 mm
00:52 16.7 °C 15.4 °C 1014.4 hPa NNW 4.8 km/h 12.9 km/h 92 % 2.5 mm
01:02 16.7 °C 15.4 °C 1015.5 hPa Calm   17.7 km/h 92 % 2.3 mm
01:12 16.6 °C 15.5 °C 1015.5 hPa NW 4.8 km/h 12.9 km/h 93 % 2.5 mm
01:17 16.6 °C 15.5 °C 1015.1 hPa NNW 9.7 km/h 9.7 km/h 93 % 2.3 mm
01:22 16.6 °C 15.5 °C 1014.1 hPa NNW 9.7 km/h 9.7 km/h 93 % 2.3 mm
01:32 16.5 °C 15.4 °C 1013.4 hPa NNE 6.4 km/h 14.5 km/h 93 % 2.3 mm
01:42 16.6 °C 15.5 °C 1014.4 hPa NW 6.4 km/h 25.7 km/h 93 % 2.8 mm
01:47 16.6 °C 15.5 °C 1014.8 hPa NW 3.2 km/h 19.3 km/h 93 % 1.5 mm
01:52 16.6 °C 15.3 °C 1015.1 hPa Calm   19.3 km/h 92 % 1.5 mm
01:57 16.6 °C 15.3 °C 1014.8 hPa NE 4.8 km/h 14.5 km/h 92 % 1.0 mm
02:02 16.6 °C 15.3 °C 1014.4 hPa North 1.6 km/h 14.5 km/h 92 % 1.0 mm
02:07 16.6 °C 15.5 °C 1014.4 hPa NNW 4.8 km/h 6.4 km/h 93 % 0.8 mm
02:12 16.6 °C 15.5 °C 1014.4 hPa NW 3.2 km/h 6.4 km/h 93 % 0.8 mm
02:17 16.6 °C 15.5 °C 1014.4 hPa NNW 4.8 km/h 9.7 km/h 93 % 0.8 mm
02:22 16.6 °C 15.5 °C 1014.4 hPa Calm   9.7 km/h 93 % 0.8 mm
02:32 16.7 °C 15.6 °C 1014.4 hPa NE 3.2 km/h 9.7 km/h 93 % 0.3 mm
02:42 16.6 °C 15.5 °C 1013.8 hPa ENE 4.8 km/h 9.7 km/h 93 % 0.0 mm
02:52 16.6 °C 15.5 °C 1014.1 hPa NNW 3.2 km/h 6.4 km/h 93 % 0.5 mm
02:57 16.6 °C 15.5 °C 1014.4 hPa Calm   9.7 km/h 93 % 0.5 mm
03:02 16.6 °C 15.6 °C 1014.8 hPa Calm   9.7 km/h 94 % 0.5 mm
03:07 16.6 °C 15.6 °C 1014.4 hPa Calm   6.4 km/h 94 % 0.5 mm
03:12 16.6 °C 15.6 °C 1014.4 hPa Calm   6.4 km/h 94 % 0.5 mm
03:17 16.6 °C 15.6 °C 1014.1 hPa Calm   6.4 km/h 94 % 0.5 mm
03:22 16.6 °C 15.6 °C 1014.1 hPa NNE 1.6 km/h 4.8 km/h 94 % 0.5 mm
03:32 16.6 °C 15.6 °C 1013.8 hPa NNW 6.4 km/h 8.0 km/h 94 % 0.5 mm
03:37 16.6 °C 15.6 °C 1013.1 hPa WSW 3.2 km/h 16.1 km/h 94 % 0.5 mm
03:42 16.6 °C 15.6 °C 1014.4 hPa Calm   20.9 km/h 94 % 0.5 mm
03:47 16.6 °C 15.6 °C 1013.4 hPa NNW 8.0 km/h 20.9 km/h 94 % 0.5 mm
03:52 16.7 °C 15.7 °C 1013.8 hPa Calm   11.3 km/h 94 % 1.0 mm
03:57 16.7 °C 15.7 °C 1014.8 hPa WNW 3.2 km/h 11.3 km/h 94 % 1.0 mm
04:02 16.7 °C 15.7 °C 1014.4 hPa Calm   9.7 km/h 94 % 1.3 mm
04:12 16.6 °C 15.6 °C 1014.8 hPa Calm   4.8 km/h 94 % 1.3 mm
04:17 16.6 °C 15.6 °C 1014.4 hPa Calm   4.8 km/h 94 % 1.3 mm
04:22 16.6 °C 15.6 °C 1014.4 hPa Calm   4.8 km/h 94 % 1.0 mm
04:27 16.6 °C 15.8 °C 1014.1 hPa NNW 1.6 km/h 4.8 km/h 95 % 1.0 mm
04:32 16.6 °C 15.8 °C 1014.1 hPa Calm   4.8 km/h 95 % 1.3 mm
04:42 16.5 °C 15.7 °C 1014.1 hPa Calm   9.7 km/h 95 % 1.0 mm
04:52 16.6 °C 15.8 °C 1013.8 hPa NNW 1.6 km/h 9.7 km/h 95 % 1.0 mm
04:57 16.6 °C 15.8 °C 1013.4 hPa North 1.6 km/h 6.4 km/h 95 % 0.5 mm
05:02 16.6 °C 15.8 °C 1013.4 hPa North 6.4 km/h 6.4 km/h 95 % 0.5 mm
05:12 16.6 °C 15.8 °C 1013.8 hPa North 4.8 km/h 9.7 km/h 95 % 0.5 mm
05:17 16.6 °C 15.8 °C 1013.4 hPa NNW 1.6 km/h 9.7 km/h 95 % 0.5 mm
05:22 16.6 °C 16.0 °C 1015.1 hPa SW 8.0 km/h 9.7 km/h 96 % 0.5 mm
05:27 16.6 °C 15.8 °C 1016.8 hPa West 22.5 km/h 22.5 km/h 95 % 0.5 mm
05:37 16.7 °C 16.1 °C 1016.5 hPa South 1.6 km/h 49.9 km/h 96 % 11.4 mm
05:42 16.7 °C 16.1 °C 1016.8 hPa SW 8.0 km/h 49.9 km/h 96 % 11.4 mm
05:47 16.4 °C 15.6 °C 1016.8 hPa SSW 6.4 km/h 16.1 km/h 95 % 13.0 mm
05:52 16.4 °C 15.8 °C 1017.5 hPa SSW 11.3 km/h 16.1 km/h 96 % 13.0 mm
06:02 16.2 °C 15.6 °C 1017.8 hPa SE 4.8 km/h 16.1 km/h 96 % 13.7 mm
06:07 16.2 °C 15.6 °C 1016.5 hPa ENE 1.6 km/h 16.1 km/h 96 % 14.5 mm
06:12 16.2 °C 15.6 °C 1016.1 hPa NE 3.2 km/h 16.1 km/h 96 % 14.5 mm
06:17 16.2 °C 15.6 °C 1014.8 hPa NE 17.7 km/h 17.7 km/h 96 % 14.7 mm
06:22 16.2 °C 15.6 °C 1013.8 hPa NE 17.7 km/h 17.7 km/h 96 % 15.2 mm
06:32 16.1 °C 15.5 °C 1011.7 hPa North 14.5 km/h 30.6 km/h 96 % 12.7 mm
06:37 16.1 °C 15.5 °C 1012.1 hPa NNE 14.5 km/h 30.6 km/h 96 % 12.7 mm
06:42 16.1 °C 15.5 °C 1012.1 hPa NE 3.2 km/h 37.0 km/h 96 % 4.1 mm
06:47 16.1 °C 15.5 °C 1012.1 hPa NNE 9.7 km/h 37.0 km/h 96 % 4.1 mm
06:52 16.0 °C 15.4 °C 1012.1 hPa WSW 1.6 km/h 24.1 km/h 96 % 2.5 mm
06:57 16.0 °C 15.4 °C 1012.8 hPa North 8.0 km/h 14.5 km/h 96 % 2.3 mm
07:02 16.0 °C 15.4 °C 1011.4 hPa North 4.8 km/h 14.5 km/h 96 % 2.3 mm
07:07 16.0 °C 15.4 °C 1013.1 hPa South 6.4 km/h 17.7 km/h 96 % 1.5 mm
07:12 16.1 °C 15.5 °C 1012.8 hPa SW 3.2 km/h 17.7 km/h 96 % 1.5 mm
07:17 16.0 °C 15.4 °C 1013.1 hPa SSW 4.8 km/h 16.1 km/h 96 % 1.0 mm
07:22 15.9 °C 15.3 °C 1013.8 hPa South 6.4 km/h 16.1 km/h 96 % 1.0 mm
07:27 15.9 °C 15.3 °C 1014.1 hPa SSW 11.3 km/h 12.9 km/h 96 % 0.5 mm
07:37 16.1 °C 15.6 °C 1015.5 hPa West 11.3 km/h 19.3 km/h 97 % 0.3 mm
07:42 16.1 °C 15.5 °C 1014.8 hPa WSW 8.0 km/h 19.3 km/h 96 % 0.3 mm
07:47 16.2 °C 15.6 °C 1014.8 hPa West 3.2 km/h 22.5 km/h 96 % 0.3 mm
07:52 16.2 °C 15.6 °C 1014.4 hPa WNW 6.4 km/h 22.5 km/h 96 % 0.3 mm
07:57 16.3 °C 15.7 °C 1014.4 hPa West 4.8 km/h 12.9 km/h 96 % 0.3 mm
08:02 16.4 °C 15.8 °C 1014.8 hPa SW 6.4 km/h 12.9 km/h 96 % 0.3 mm
08:07 16.6 °C 16.0 °C 1015.1 hPa SW 14.5 km/h 14.5 km/h 96 % 0.0 mm
08:12 16.7 °C 16.1 °C 1015.1 hPa West 9.7 km/h 12.9 km/h 96 % 0.0 mm
08:17 16.7 °C 16.1 °C 1015.5 hPa WSW 14.5 km/h 20.9 km/h 96 % 0.0 mm
08:22 16.7 °C 15.9 °C 1015.8 hPa SW 14.5 km/h 20.9 km/h 95 % 0.0 mm
08:27 16.8 °C 16.0 °C 1015.8 hPa WSW 11.3 km/h 24.1 km/h 95 % 0.0 mm
08:32 16.8 °C 16.0 °C 1016.1 hPa West 4.8 km/h 24.1 km/h 95 % 0.0 mm
08:37 16.8 °C 16.0 °C 1015.8 hPa West 3.2 km/h 19.3 km/h 95 % 0.0 mm
08:42 16.8 °C 16.0 °C 1016.5 hPa West 17.7 km/h 19.3 km/h 95 % 0.0 mm
08:47 16.9 °C 16.1 °C 1016.5 hPa WSW 6.4 km/h 19.3 km/h 95 % 0.0 mm
08:52 16.9 °C 16.1 °C 1016.8 hPa WSW 20.9 km/h 20.9 km/h 95 % 0.0 mm
09:02 16.9 °C 16.1 °C 1017.2 hPa West 4.8 km/h 22.5 km/h 95 % 0.0 mm
09:07 16.9 °C 16.1 °C 1016.5 hPa Calm   22.5 km/h 95 % 0.3 mm
09:12 16.9 °C 16.1 °C 1016.5 hPa Calm   22.5 km/h 95 % 0.3 mm
09:17 16.9 °C 16.1 °C 1016.8 hPa ESE 1.6 km/h 19.3 km/h 95 % 0.3 mm
09:22 16.9 °C 16.1 °C 1016.8 hPa Calm   11.3 km/h 95 % 0.8 mm
09:32 16.8 °C 16.0 °C 1015.5 hPa NE 8.0 km/h 9.7 km/h 95 % 1.3 mm
09:37 16.8 °C 16.0 °C 1014.8 hPa NE 12.9 km/h 16.1 km/h 95 % 1.5 mm
09:42 16.9 °C 16.3 °C 1016.1 hPa East 3.2 km/h 16.1 km/h 96 % 1.5 mm
09:47 17.0 °C 16.4 °C 1016.8 hPa Calm   19.3 km/h 96 % 1.5 mm
09:52 17.1 °C 16.5 °C 1017.2 hPa SW 3.2 km/h 19.3 km/h 96 % 1.5 mm
09:57 17.0 °C 16.4 °C 1016.8 hPa WNW 1.6 km/h 11.3 km/h 96 % 1.5 mm
10:02 17.0 °C 16.4 °C 1015.8 hPa ENE 3.2 km/h 11.3 km/h 96 % 1.5 mm
10:07 16.9 °C 16.3 °C 1015.1 hPa NE 14.5 km/h 14.5 km/h 96 % 1.5 mm
10:12 16.8 °C 16.2 °C 1014.1 hPa ESE 6.4 km/h 8.0 km/h 96 % 1.5 mm
10:17 16.9 °C 16.3 °C 1015.8 hPa SE 1.6 km/h 20.9 km/h 96 % 1.0 mm
10:22 17.1 °C 16.5 °C 1015.8 hPa Calm   20.9 km/h 96 % 1.0 mm
10:27 17.2 °C 16.6 °C 1015.8 hPa Calm   8.0 km/h 96 % 0.5 mm
10:32 17.4 °C 16.8 °C 1016.5 hPa SW 3.2 km/h 8.0 km/h 96 % 0.5 mm
10:37 17.3 °C 16.5 °C 1016.5 hPa SW 4.8 km/h 4.8 km/h 95 % 0.5 mm
10:42 17.4 °C 16.8 °C 1016.1 hPa West 3.2 km/h 3.2 km/h 96 % 0.5 mm
10:47 17.4 °C 16.6 °C 1016.1 hPa WNW 4.8 km/h 6.4 km/h 95 % 0.5 mm
10:57 17.7 °C 17.1 °C 1016.5 hPa Calm   9.7 km/h 96 % 0.3 mm
11:02 17.6 °C 16.6 °C 1015.8 hPa Calm   9.7 km/h 94 % 0.3 mm
11:07 17.7 °C 16.9 °C 1015.8 hPa North 3.2 km/h 4.8 km/h 95 % 0.0 mm
11:12 17.9 °C 16.9 °C 1016.1 hPa WNW 8.0 km/h 8.0 km/h 94 % 0.0 mm
11:17 17.9 °C 16.9 °C 1017.2 hPa SW 8.0 km/h 8.0 km/h 94 % 0.0 mm
11:22 18.0 °C 17.0 °C 1016.8 hPa SW 4.8 km/h 8.0 km/h 94 % 0.0 mm
11:27 18.2 °C 17.2 °C 1016.8 hPa West 3.2 km/h 9.7 km/h 94 % 0.0 mm
11:32 18.5 °C 17.3 °C 1016.8 hPa WSW 3.2 km/h 9.7 km/h 93 % 0.0 mm
11:37 18.7 °C 17.2 °C 1016.8 hPa Calm   6.4 km/h 91 % 0.0 mm
11:42 18.9 °C 17.0 °C 1016.8 hPa SW 4.8 km/h 6.4 km/h 89 % 0.0 mm
11:47 19.1 °C 17.4 °C 1016.5 hPa West 4.8 km/h 8.0 km/h 90 % 0.0 mm
11:52 19.1 °C 17.1 °C 1016.5 hPa West 3.2 km/h 8.0 km/h 88 % 0.0 mm
11:57 19.2 °C 17.2 °C 1016.5 hPa WSW 3.2 km/h 6.4 km/h 88 % 0.0 mm
12:02 19.7 °C 17.8 °C 1016.5 hPa South 1.6 km/h 6.4 km/h 89 % 0.0 mm
12:07 19.9 °C 17.5 °C 1016.5 hPa West 3.2 km/h 6.4 km/h 86 % 0.0 mm
12:17 20.2 °C 17.6 °C 1016.5 hPa South 4.8 km/h 8.0 km/h 85 % 0.0 mm
12:22 20.2 °C 17.4 °C 1016.5 hPa Calm   8.0 km/h 84 % 0.0 mm
12:27 20.2 °C 17.2 °C 1016.8 hPa WSW 8.0 km/h 11.3 km/h 83 % 0.0 mm
12:32 20.3 °C 17.3 °C 1016.8 hPa West 4.8 km/h 11.3 km/h 83 % 0.0 mm
12:37 20.6 °C 17.6 °C 1016.8 hPa SSE 1.6 km/h 11.3 km/h 83 % 0.0 mm
12:42 21.1 °C 18.3 °C 1016.5 hPa Calm   11.3 km/h 84 % 0.0 mm
12:47 21.2 °C 18.0 °C 1016.8 hPa SW 1.6 km/h 9.7 km/h 82 % 0.0 mm
12:52 21.5 °C 18.5 °C 1016.8 hPa SW 6.4 km/h 6.4 km/h 83 % 0.0 mm
12:57 21.6 °C 18.0 °C 1016.8 hPa SSW 3.2 km/h 9.7 km/h 80 % 0.0 mm
13:02 21.7 °C 18.1 °C 1016.8 hPa West 4.8 km/h 11.3 km/h 80 % 0.0 mm
13:12 22.3 °C 18.9 °C 1016.8 hPa WSW 8.0 km/h 11.3 km/h 81 % 0.0 mm
13:17 22.6 °C 18.8 °C 1016.8 hPa WNW 6.4 km/h 9.7 km/h 79 % 0.0 mm
13:22 22.7 °C 18.7 °C 1016.8 hPa West 1.6 km/h 11.3 km/h 78 % 0.0 mm
13:27 22.8 °C 18.1 °C 1016.8 hPa Calm   11.3 km/h 75 % 0.0 mm
13:32 22.9 °C 18.2 °C 1016.8 hPa SSE 3.2 km/h 11.3 km/h 75 % 0.0 mm
13:37 23.2 °C 18.1 °C 1016.8 hPa SW 6.4 km/h 9.7 km/h 73 % 0.0 mm
13:42 23.1 °C 18.4 °C 1016.8 hPa WSW 6.4 km/h 11.3 km/h 75 % 0.0 mm
13:47 23.2 °C 18.1 °C 1016.8 hPa South 3.2 km/h 11.3 km/h 73 % 0.0 mm
13:52 23.1 °C 18.6 °C 1016.8 hPa SSW 3.2 km/h 11.3 km/h 76 % 0.0 mm
13:57 23.1 °C 18.0 °C 1016.8 hPa SSW 8.0 km/h 11.3 km/h 73 % 0.0 mm
14:02 23.2 °C 18.3 °C 1016.8 hPa SW 6.4 km/h 11.3 km/h 74 % 0.0 mm
14:12 23.2 °C 18.1 °C 1017.2 hPa West 4.8 km/h 11.3 km/h 73 % 0.0 mm
14:17 23.4 °C 18.5 °C 1017.2 hPa SW 6.4 km/h 11.3 km/h 74 % 0.0 mm
14:22 23.6 °C 18.5 °C 1017.2 hPa SSW 11.3 km/h 11.3 km/h 73 % 0.0 mm
14:32 23.6 °C 18.0 °C 1017.2 hPa SE 3.2 km/h 11.3 km/h 71 % 0.0 mm
14:37 23.8 °C 18.2 °C 1017.2 hPa SW 6.4 km/h 11.3 km/h 71 % 0.0 mm
14:42 23.9 °C 18.5 °C 1017.2 hPa South 6.4 km/h 9.7 km/h 72 % 0.0 mm
14:47 24.1 °C 18.5 °C 1017.2 hPa SSW 9.7 km/h 9.7 km/h 71 % 0.0 mm
14:52 23.8 °C 18.0 °C 1017.2 hPa SSW 1.6 km/h 14.5 km/h 70 % 0.0 mm
14:57 23.7 °C 18.1 °C 1017.2 hPa SW 4.8 km/h 14.5 km/h 71 % 0.0 mm
15:02 23.7 °C 18.4 °C 1017.2 hPa South 1.6 km/h 14.5 km/h 72 % 0.0 mm
15:07 24.0 °C 18.6 °C 1017.2 hPa South 3.2 km/h 9.7 km/h 72 % 0.0 mm
15:12 23.9 °C 18.1 °C 1017.2 hPa SSW 8.0 km/h 8.0 km/h 70 % 0.0 mm
15:17 23.9 °C 18.1 °C 1016.8 hPa Calm   8.0 km/h 70 % 0.0 mm
15:22 24.2 °C 18.2 °C 1016.8 hPa SSW 4.8 km/h 8.0 km/h 69 % 0.0 mm
15:27 24.4 °C 18.3 °C 1017.2 hPa South 4.8 km/h 8.0 km/h 69 % 0.0 mm
15:32 24.6 °C 18.3 °C 1017.2 hPa SW 3.2 km/h 8.0 km/h 68 % 0.0 mm
15:37 24.6 °C 18.3 °C 1017.2 hPa South 3.2 km/h 9.7 km/h 68 % 0.0 mm
15:42 24.4 °C 18.6 °C 1017.2 hPa WNW 3.2 km/h 12.9 km/h 70 % 0.0 mm
15:47 24.3 °C 18.7 °C 1017.2 hPa WSW 8.0 km/h 12.9 km/h 71 % 0.0 mm
15:52 24.3 °C 18.5 °C 1017.2 hPa SW 17.7 km/h 17.7 km/h 70 % 0.0 mm
15:57 24.3 °C 18.5 °C 1017.2 hPa WSW 6.4 km/h 17.7 km/h 70 % 0.0 mm
16:02 24.3 °C 18.5 °C 1017.2 hPa SW 9.7 km/h 17.7 km/h 70 % 0.0 mm
16:12 24.4 °C 18.6 °C 1016.8 hPa WNW 4.8 km/h 12.9 km/h 70 % 0.0 mm
16:17 24.5 °C 18.4 °C 1016.8 hPa WNW 8.0 km/h 11.3 km/h 69 % 0.0 mm
16:22 24.5 °C 18.4 °C 1016.8 hPa WNW 8.0 km/h 11.3 km/h 69 % 0.0 mm
16:32 24.6 °C 18.3 °C 1016.8 hPa West 8.0 km/h 14.5 km/h 68 % 0.0 mm
16:37 24.8 °C 18.5 °C 1016.8 hPa WSW 4.8 km/h 16.1 km/h 68 % 0.0 mm
16:42 24.8 °C 18.5 °C 1017.2 hPa WNW 6.4 km/h 16.1 km/h 68 % 0.0 mm
16:47 24.9 °C 18.6 °C 1017.2 hPa West 1.6 km/h 16.1 km/h 68 % 0.0 mm
16:52 24.8 °C 18.5 °C 1016.8 hPa Calm   12.9 km/h 68 % 0.0 mm
16:57 25.2 °C 18.9 °C 1016.8 hPa WNW 8.0 km/h 12.9 km/h 68 % 0.0 mm
17:02 25.2 °C 18.6 °C 1016.8 hPa SSW 6.4 km/h 11.3 km/h 67 % 0.0 mm
17:12 24.9 °C 18.3 °C 1017.2 hPa West 8.0 km/h 11.3 km/h 67 % 0.0 mm
17:22 24.5 °C 18.4 °C 1017.2 hPa WNW 3.2 km/h 12.9 km/h 69 % 0.0 mm
17:32 24.4 °C 18.3 °C 1016.8 hPa West 6.4 km/h 8.0 km/h 69 % 0.0 mm
17:37 24.5 °C 18.4 °C 1017.2 hPa WNW 3.2 km/h 8.0 km/h 69 % 0.0 mm
17:42 24.5 °C 18.7 °C 1016.8 hPa WSW 1.6 km/h 8.0 km/h 70 % 0.0 mm
17:52 24.7 °C 18.9 °C 1017.2 hPa SSW 3.2 km/h 4.8 km/h 70 % 0.0 mm
17:57 24.6 °C 18.5 °C 1016.8 hPa WNW 1.6 km/h 4.8 km/h 69 % 0.0 mm
18:02 24.6 °C 18.8 °C 1016.8 hPa Calm   4.8 km/h 70 % 0.0 mm
18:12 25.2 °C 19.1 °C 1016.8 hPa NE 3.2 km/h 3.2 km/h 69 % 0.0 mm
18:17 25.3 °C 19.0 °C 1016.8 hPa WSW 1.6 km/h 3.2 km/h 68 % 0.0 mm
18:22 25.7 °C 19.1 °C 1017.2 hPa WSW 1.6 km/h 4.8 km/h 67 % 0.0 mm
18:27 25.7 °C 19.1 °C 1017.2 hPa Calm   3.2 km/h 67 % 0.0 mm
18:32 25.4 °C 18.8 °C 1017.2 hPa NE 6.4 km/h 6.4 km/h 67 % 0.0 mm
18:37 24.9 °C 18.8 °C 1017.2 hPa NNE 1.6 km/h 8.0 km/h 69 % 0.0 mm
18:42 24.8 °C 18.7 °C 1017.2 hPa NE 3.2 km/h 8.0 km/h 69 % 0.0 mm
18:47 24.8 °C 18.7 °C 1017.2 hPa Calm   8.0 km/h 69 % 0.0 mm
18:52 25.1 °C 19.0 °C 1017.2 hPa Calm   4.8 km/h 69 % 0.0 mm
18:57 25.5 °C 18.9 °C 1017.2 hPa NNE 3.2 km/h 4.8 km/h 67 % 0.0 mm
19:02 25.3 °C 18.7 °C 1017.2 hPa North 3.2 km/h 6.4 km/h 67 % 0.0 mm
19:07 25.1 °C 18.5 °C 1017.2 hPa WNW 1.6 km/h 6.4 km/h 67 % 0.0 mm
19:12 24.8 °C 18.5 °C 1017.5 hPa West 3.2 km/h 9.7 km/h 68 % 0.0 mm
19:22 24.6 °C 18.3 °C 1017.5 hPa WNW 1.6 km/h 9.7 km/h 68 % 0.0 mm
19:32 24.6 °C 17.6 °C 1017.5 hPa WNW 4.8 km/h 8.0 km/h 65 % 0.0 mm
19:42 24.6 °C 18.1 °C 1017.5 hPa NNE 1.6 km/h 8.0 km/h 67 % 0.0 mm
19:47 24.7 °C 17.9 °C 1017.5 hPa WNW 1.6 km/h 8.0 km/h 66 % 0.0 mm
19:52 24.9 °C 17.6 °C 1017.5 hPa Calm   8.0 km/h 64 % 0.0 mm
19:57 25.1 °C 17.6 °C 1017.5 hPa Calm   8.0 km/h 63 % 0.0 mm
20:02 25.2 °C 17.7 °C 1017.5 hPa NW 1.6 km/h 6.4 km/h 63 % 0.0 mm
20:07 25.2 °C 17.7 °C 1017.5 hPa North 1.6 km/h 4.8 km/h 63 % 0.0 mm
20:17 24.9 °C 17.4 °C 1017.5 hPa NNE 1.6 km/h 6.4 km/h 63 % 0.0 mm
20:22 25.1 °C 17.8 °C 1017.5 hPa Calm   6.4 km/h 64 % 0.0 mm
20:27 25.1 °C 17.6 °C 1017.8 hPa Calm   4.8 km/h 63 % 0.0 mm
20:32 25.1 °C 17.3 °C 1017.5 hPa NW 1.6 km/h 3.2 km/h 62 % 0.0 mm
20:37 25.1 °C 17.6 °C 1017.8 hPa Calm   3.2 km/h 63 % 0.0 mm
20:47 24.9 °C 17.6 °C 1017.8 hPa Calm   3.2 km/h 64 % 0.0 mm
20:52 24.7 °C 17.7 °C 1017.8 hPa Calm     65 % 0.0 mm
21:02 23.8 °C 18.0 °C 1017.8 hPa Calm   1.6 km/h 70 % 0.0 mm
21:12 22.7 °C 18.0 °C 1018.2 hPa NW 1.6 km/h 1.6 km/h 75 % 0.0 mm
21:17 22.3 °C 17.0 °C 1018.2 hPa Calm   1.6 km/h 72 % 0.0 mm
21:22 22.3 °C 17.2 °C 1018.2 hPa Calm   1.6 km/h 73 % 0.0 mm
21:27 22.0 °C 17.2 °C 1018.2 hPa NNW 3.2 km/h 3.2 km/h 74 % 0.0 mm
21:32 21.9 °C 17.5 °C 1018.2 hPa NNW 1.6 km/h 3.2 km/h 76 % 0.0 mm
21:37 21.8 °C 17.6 °C 1018.2 hPa Calm   3.2 km/h 77 % 0.0 mm
21:42 21.2 °C 17.0 °C 1018.5 hPa Calm   3.2 km/h 77 % 0.0 mm
21:47 20.9 °C 17.3 °C 1018.5 hPa Calm   1.6 km/h 80 % 0.0 mm
21:52 20.5 °C 16.9 °C 1018.5 hPa Calm     80 % 0.0 mm
21:57 20.6 °C 17.0 °C 1018.5 hPa Calm     80 % 0.0 mm
22:07 20.5 °C 17.1 °C 1018.8 hPa Calm     81 % 0.0 mm
22:12 20.2 °C 17.2 °C 1018.8 hPa Calm     83 % 0.0 mm
22:17 19.9 °C 17.1 °C 1018.8 hPa Calm     84 % 0.0 mm
22:22 19.7 °C 16.9 °C 1018.8 hPa Calm     84 % 0.0 mm
22:32 19.6 °C 17.0 °C 1018.8 hPa Calm     85 % 0.0 mm
22:37 19.6 °C 17.0 °C 1018.8 hPa Calm     85 % 0.0 mm
22:42 19.6 °C 17.2 °C 1018.8 hPa Calm     86 % 0.0 mm
22:47 19.4 °C 17.0 °C 1018.8 hPa Calm     86 % 0.0 mm
22:52 19.2 °C 16.8 °C 1019.2 hPa Calm     86 % 0.0 mm
22:57 19.0 °C 16.8 °C 1019.2 hPa Calm     87 % 0.0 mm
23:02 18.9 °C 16.9 °C 1018.8 hPa Calm     88 % 0.0 mm
23:12 18.6 °C 16.8 °C 1018.8 hPa Calm     89 % 0.0 mm
23:17 18.5 °C 16.7 °C 1019.2 hPa Calm     89 % 0.0 mm
23:22 18.3 °C 16.6 °C 1019.2 hPa Calm     90 % 0.0 mm
23:32 18.3 °C 16.6 °C 1019.2 hPa Calm     90 % 0.0 mm
23:37 18.4 °C 16.7 °C 1019.2 hPa Calm     90 % 0.0 mm
23:42 18.5 °C 16.8 °C 1019.2 hPa Calm     90 % 0.0 mm
23:47 18.3 °C 16.5 °C 1019.2 hPa Calm     89 % 0.0 mm
23:52 18.1 °C 16.4 °C 1019.5 hPa WNW 3.2 km/h   90 % 0.0 mm
Meteo18
Compliments of Weather Underground - 4 mb

Script developed by  Jim McMurry - jmcmurry@mwt.net Adapted for the template by  Wim van der Kuil - Leuven-Template.eu

You find our weather info also at:

European Weather Network

Weather Underground

Equipment we use:

Weather-station
Davis Vue

Weather-program
Meteohub

Weather-server
Raspberry PI 2 B+

Provider
1 and 1

Davis Vue

Meteohub

Raspberry PI 2 B+

1 and 1